Dokkum, Netherlands
Current Conditions -  °F | °C
As of 7:01 PM on Monday 24 Nov 2014 (Local Time) from EHLW Reporting Station
Overcast Overcast  
Wind Chill: 43°   Ceiling: 4100
Heat Index: 43°   Visibility: 6mi
Dew Point: 41°   Wind: 2mph
Humidity: 93%   Direction: 220°SW
Pressure: 30.27"   Gusts: NA
Location:  53.32°N, 6°E
Report Text: EHLW 241801Z AUTO 22002KT 9999 OVC041 06/05 Q1025 BLU 24004KT 9999 OVC040
Loading
Personal Weather Stations






























Interactive Weather Map New forecast layout! Learn more

10-Day Weather Forecast

Advertisements
Track Severe Weather on mobile